TimeEDT,TemperatureF,Dew PointF,Humidity,Sea Level PressureIn,VisibilityMPH,Wind Direction,Wind SpeedMPH,Gust SpeedMPH,PrecipitationIn,Events,Conditions,WindDirDegrees,DateUTC
12:18 AM,51.8,44.6,76,30.00,10.0,Calm,Calm,-,N/A,,Mostly Cloudy,0,2012-10-01 04:18:00
12:38 AM,53.6,44.6,72,30.00,10.0,Calm,Calm,-,N/A,,Overcast,0,2012-10-01 04:38:00
12:58 AM,51.8,44.6,76,30.00,10.0,Calm,Calm,-,N/A,,Scattered Clouds,0,2012-10-01 04:58:00
1:18 AM,51.8,44.6,76,30.00,10.0,Calm,Calm,-,N/A,,Clear,0,2012-10-01 05:18:00
1:38 AM,50.0,42.8,76,30.00,10.0,Calm,Calm,-,N/A,,Clear,0,2012-10-01 05:38:00
1:58 AM,48.2,44.6,87,30.00,10.0,Calm,Calm,-,N/A,,Clear,0,2012-10-01 05:58:00
2:18 AM,50.0,42.8,76,30.00,10.0,Calm,Calm,-,N/A,,Clear,0,2012-10-01 06:18:00
2:38 AM,51.8,44.6,76,30.00,10.0,Calm,Calm,-,N/A,,Clear,0,2012-10-01 06:38:00
2:58 AM,51.8,44.6,76,29.99,10.0,Calm,Calm,-,N/A,,Clear,0,2012-10-01 06:58:00
3:18 AM,51.8,44.6,76,29.99,10.0,Calm,Calm,-,N/A,,Clear,0,2012-10-01 07:18:00
3:38 AM,51.8,44.6,76,29.98,10.0,Calm,Calm,-,N/A,,Clear,0,2012-10-01 07:38:00
4:18 AM,51.8,44.6,76,29.98,10.0,South,4.6,-,N/A,,Clear,190,2012-10-01 08:18:00
5:18 AM,51.8,44.6,76,29.98,10.0,South,3.5,-,N/A,,Clear,180,2012-10-01 09:18:00
5:38 AM,51.8,42.8,71,29.98,10.0,South,3.5,-,N/A,,Clear,170,2012-10-01 09:38:00
5:58 AM,51.8,42.8,71,29.97,10.0,Calm,Calm,-,N/A,,Clear,0,2012-10-01 09:58:00
6:18 AM,51.8,44.6,76,29.97,10.0,Calm,Calm,-,N/A,,Clear,0,2012-10-01 10:18:00
6:38 AM,50.0,42.8,76,29.97,10.0,Calm,Calm,-,N/A,,Clear,0,2012-10-01 10:38:00
7:18 AM,51.8,42.8,71,29.98,10.0,SSE,4.6,-,N/A,,Clear,150,2012-10-01 11:18:00
7:38 AM,51.8,42.8,71,29.99,10.0,SSE,4.6,-,N/A,,Clear,150,2012-10-01 11:38:00
8:18 AM,51.8,44.6,76,29.99,10.0,SE,5.8,-,N/A,,Overcast,140,2012-10-01 12:18:00
8:38 AM,51.8,44.6,76,30.00,10.0,ESE,4.6,-,N/A,,Overcast,120,2012-10-01 12:38:00
9:18 AM,51.8,44.6,76,30.02,10.0,SSE,6.9,-,N/A,,Scattered Clouds,160,2012-10-01 13:18:00
9:38 AM,51.8,46.4,82,30.02,10.0,South,11.5,-,N/A,,Scattered Clouds,170,2012-10-01 13:38:00
10:18 AM,51.8,48.2,88,30.02,10.0,SE,6.9,-,N/A,,Light Drizzle,140,2012-10-01 14:18:00
10:38 AM,51.8,48.2,88,30.02,10.0,SSE,8.1,-,N/A,,Mostly Cloudy,150,2012-10-01 14:38:00
10:58 AM,53.6,48.2,82,30.01,10.0,SE,8.1,-,N/A,,Scattered Clouds,140,2012-10-01 14:58:00
11:18 AM,51.8,48.2,88,30.02,10.0,SSE,8.1,-,N/A,,Mostly Cloudy,150,2012-10-01 15:18:00
11:38 AM,51.8,48.2,88,30.02,5.0,SE,6.9,-,N/A,,Overcast,130,2012-10-01 15:38:00
11:58 AM,50.0,48.2,94,30.02,2.0,SE,6.9,-,N/A,,Drizzle,140,2012-10-01 15:58:00
12:18 PM,48.2,48.2,100,30.01,4.0,SE,8.1,-,N/A,,Light Drizzle,130,2012-10-01 16:18:00
12:38 PM,50.0,48.2,94,30.00,10.0,SE,8.1,-,N/A,,Overcast,130,2012-10-01 16:38:00
12:58 PM,51.8,48.2,88,30.01,7.0,SE,4.6,-,N/A,,Overcast,130,2012-10-01 16:58:00
1:18 PM,51.8,48.2,88,30.00,5.0,SE,8.1,-,N/A,Rain,Rain,130,2012-10-01 17:18:00
1:38 PM,48.2,48.2,100,30.00,1.2,ESE,9.2,-,0.03,Rain,Rain,120,2012-10-01 17:38:00
2:18 PM,48.2,48.2,100,29.99,0.2,SE,11.5,16.1,0.14,Rain,Rain,130,2012-10-01 18:18:00
2:38 PM,48.2,48.2,100,29.99,0.2,SE,10.4,-,0.15,Rain,Light Rain,140,2012-10-01 18:38:00
2:58 PM,48.2,48.2,100,29.98,0.2,ESE,9.2,-,N/A,Rain,Light Rain,120,2012-10-01 18:58:00
3:18 PM,48.2,48.2,100,29.98,0.2,ESE,10.4,-,N/A,Rain,Light Rain,120,2012-10-01 19:18:00
3:38 PM,48.2,48.2,100,29.99,0.2,SE,6.9,-,N/A,Rain,Light Rain,130,2012-10-01 19:38:00
3:58 PM,48.2,48.2,100,29.99,0.2,SE,9.2,-,N/A,Rain,Light Rain,130,2012-10-01 19:58:00
4:18 PM,48.2,48.2,100,29.99,0.2,SE,11.5,17.3,N/A,Rain,Light Rain,130,2012-10-01 20:18:00
4:38 PM,48.2,48.2,100,30.00,0.2,ESE,8.1,-,N/A,Rain,Light Rain,120,2012-10-01 20:38:00
5:18 PM,48.2,48.2,100,29.99,0.2,ESE,9.2,-,0.01,Rain,Rain,120,2012-10-01 21:18:00
5:38 PM,48.2,48.2,100,29.99,0.2,ESE,9.2,-,0.02,Rain,Rain,120,2012-10-01 21:38:00
5:58 PM,48.2,48.2,100,30.00,0.2,SE,8.1,-,N/A,Rain,Light Rain,130,2012-10-01 21:58:00
6:18 PM,48.2,48.2,100,29.99,0.2,SE,6.9,-,N/A,Rain,Light Rain,130,2012-10-01 22:18:00
6:38 PM,48.2,48.2,100,29.99,0.2,ESE,8.1,-,N/A,Rain,Light Rain,120,2012-10-01 22:38:00
6:58 PM,48.2,48.2,100,29.98,0.2,ESE,9.2,-,N/A,Rain,Light Rain,110,2012-10-01 22:58:00
7:18 PM,48.2,48.2,100,29.98,0.2,ESE,6.9,-,N/A,Rain,Light Rain,120,2012-10-01 23:18:00
7:38 PM,50.0,50.0,100,29.97,0.2,ESE,8.1,-,N/A,Rain,Light Rain,110,2012-10-01 23:38:00
7:58 PM,48.2,48.2,100,29.96,0.2,East,9.2,-,N/A,Rain,Rain,90,2012-10-01 23:58:00
8:18 PM,48.2,48.2,100,29.98,0.2,ESE,8.1,-,N/A,Rain,Rain,110,2012-10-02 00:18:00
8:38 PM,48.2,48.2,100,29.97,0.2,East,10.4,-,0.01,Rain,Rain,100,2012-10-02 00:38:00
8:58 PM,50.0,50.0,100,29.97,0.2,ESE,9.2,-,N/A,Rain,Rain,110,2012-10-02 00:58:00
9:18 PM,51.8,51.8,100,29.97,0.2,ESE,10.4,-,N/A,Rain,Rain,120,2012-10-02 01:18:00
9:38 PM,51.8,51.8,100,29.98,0.2,ESE,9.2,-,N/A,Rain,Rain,120,2012-10-02 01:38:00
9:58 PM,51.8,51.8,100,29.98,0.2,ESE,9.2,-,N/A,Rain,Rain,120,2012-10-02 01:58:00
10:18 PM,51.8,51.8,100,29.98,0.2,ESE,8.1,-,N/A,Rain,Rain,110,2012-10-02 02:18:00
10:38 PM,51.8,51.8,100,29.98,0.2,ESE,10.4,-,N/A,Rain,Rain,110,2012-10-02 02:38:00
10:58 PM,51.8,51.8,100,30.00,0.2,ESE,5.8,-,N/A,Rain,Rain,120,2012-10-02 02:58:00
11:18 PM,51.8,51.8,100,30.00,0.2,ESE,6.9,-,N/A,Rain,Heavy Rain,120,2012-10-02 03:18:00
11:38 PM,51.8,51.8,100,30.00,0.2,ESE,8.1,-,N/A,Rain,Light Rain,110,2012-10-02 03:38:00